Time;durP1;ratioP1;P1;durP2;ratioP2;P2;SDS_P1;SDS_P2;PMS_P1;PMS_P2;Temp;Humidity;BMP_temperature;BMP_pressure;BME280_temperature;BME280_humidity;BME280_pressure;Samples;Min_cycle;Max_cycle;Signal;HPM_P1;HPM_P2
2021/04/15 00:01:12;;;;;;;;;;;;;;;10.65;61.36;99891.87;1828606;77;20237;-59
2021/04/15 00:03:42;;;;;;;;;;;;;;;10.58;61.36;99892.48;1646248;86;20302;-59
2021/04/15 00:06:19;;;;;;;;;;;;;;;10.55;61.43;99894.30;1646657;86;21310;-59
2021/04/15 00:08:48;;;;;;;;;;;;;;;10.52;61.51;99889.66;1645727;86;20191;-59
2021/04/15 00:11:19;;;;;;;;;;;;;;;10.44;61.65;99887.33;1644514;86;20508;-58
2021/04/15 00:13:50;;;;;;;;;;;;;;;10.33;61.84;99887.59;1645971;86;20246;-59
2021/04/15 00:16:19;;;;;;;;;;;;;;;10.24;62.33;99883.55;1643064;86;20172;-59
2021/04/15 00:18:48;;;;;;;;;;;;;;;10.07;62.88;99888.75;1648729;86;22389;-59
2021/04/15 00:21:18;;;;;;;;;;;;;;;9.93;63.51;99884.06;1690950;79;20129;-58
2021/04/15 00:23:46;;;;;;;;;;;;;;;9.84;64.28;99887.30;1801766;79;20153;-58
2021/04/15 00:26:16;;;;;;;;;;;;;;;9.71;64.59;99885.05;1804783;77;20132;-59
2021/04/15 00:28:46;;;;;;;;;;;;;;;9.63;65.21;99886.71;1802577;77;20145;-59
2021/04/15 00:31:14;;;;;;;;;;;;;;;9.51;65.15;99889.31;1798815;79;21154;-59
2021/04/15 00:33:42;;;;;;;;;;;;;;;9.46;65.31;99880.59;1799910;79;20194;-58
2021/04/15 00:36:10;;;;;;;;;;;;;;;9.49;65.45;99879.34;1799783;79;20145;-59
2021/04/15 00:38:40;;;;;;;;;;;;;;;9.49;65.49;99869.97;1797347;79;20198;-59
2021/04/15 00:41:10;;;;;;;;;;;;;;;9.39;65.63;99877.20;1802530;79;20183;-62
2021/04/15 00:43:40;;;;;;;;;;;;;;;9.31;66.08;99879.34;1797034;79;21198;-59
2021/04/15 00:46:38;;;;;;;;;;;;;;;9.22;66.34;99878.28;1800676;79;20148;-58
2021/04/15 00:49:08;;;;;;;;;;;;;;;9.21;66.56;99869.95;1801463;79;20136;-59
2021/04/15 00:51:42;;;;;;;;;;;;;;;9.23;66.63;99875.08;1769016;79;20133;-60
2021/04/15 00:54:12;;;;;;;;;;;;;;;9.22;66.74;99874.80;1801799;79;20215;-58
2021/04/15 00:56:40;;;;;;;;;;;;;;;9.21;66.73;99861.12;1801772;79;21373;-58
2021/04/15 00:59:08;;;;;;;;;;;;;;;9.16;66.92;99863.63;1798915;79;20143;-59
2021/04/15 01:01:38;;;;;;;;;;;;;;;9.10;67.12;99860.80;1782170;79;20566;-59
2021/04/15 01:04:06;;;;;;;;;;;;;;;9.07;67.26;99860.44;1783340;79;20328;-60
2021/04/15 01:06:36;;;;;;;;;;;;;;;9.07;67.25;99864.45;1625643;85;20304;-59
2021/04/15 01:09:05;;;;;;;;;;;;;;;9.14;67.28;99858.50;1649842;85;20261;-59
2021/04/15 01:11:54;;;;;;;;;;;;;;;9.16;67.28;99856.94;1654076;85;20523;-58
2021/04/15 01:14:34;;;;;;;;;;;;;;;9.18;67.28;99855.69;1657582;85;20299;-59
2021/04/15 01:17:07;;;;;;;;;;;;;;;9.20;67.42;99852.28;1657722;85;20255;-59
2021/04/15 01:20:08;;;;;;;;;;;;;;;9.20;67.74;99849.61;1655844;85;20254;-59
2021/04/15 01:22:57;;;;;;;;;;;;;;;9.19;67.76;99843.95;1651124;85;21229;-59
2021/04/15 01:25:50;;;;;;;;;;;;;;;9.16;67.86;99846.23;1752213;79;20209;-59
2021/04/15 01:28:25;;;;;;;;;;;;;;;9.10;67.93;99838.61;1776250;79;20225;-60
2021/04/15 01:30:56;;;;;;;;;;;;;;;9.09;68.78;99841.78;1647263;86;20252;-61
2021/04/15 01:33:38;;;;;;;;;;;;;;;9.12;69.13;99840.53;1801163;77;20611;-58
2021/04/15 01:36:13;;;;;;;;;;;;;;;9.11;69.36;99832.20;1783644;79;20155;-59
2021/04/15 01:38:56;;;;;;;;;;;;;;;9.20;69.63;99836.24;1826294;77;20237;-59
2021/04/15 01:41:32;;;;;;;;;;;;;;;9.13;69.59;99835.48;1803040;79;20133;-58
2021/04/15 01:44:05;;;;;;;;;;;;;;;9.19;69.71;99832.45;1800473;79;21204;-58
2021/04/15 01:46:35;;;;;;;;;;;;;;;9.24;69.59;99837.41;1802250;79;20135;-61
2021/04/15 01:49:03;;;;;;;;;;;;;;;9.26;69.48;99837.19;1803162;79;20502;-58
2021/04/15 01:51:34;;;;;;;;;;;;;;;9.29;69.59;99834.09;1811502;79;20149;-57
2021/04/15 01:54:15;;;;;;;;;;;;;;;9.28;69.81;99831.11;1805010;78;20129;-57
2021/04/15 01:56:48;;;;;;;;;;;;;;;9.25;69.92;99827.55;1801038;79;21206;-58
2021/04/15 01:59:32;;;;;;;;;;;;;;;9.25;70.04;99822.20;1801672;79;20439;-58
2021/04/15 02:02:12;;;;;;;;;;;;;;;9.29;70.46;99831.42;1767949;79;20167;-57
2021/04/15 02:04:43;;;;;;;;;;;;;;;9.23;70.68;99825.09;1763777;80;20236;-58
2021/04/15 02:07:14;;;;;;;;;;;;;;;9.10;70.83;99826.05;1733610;80;20556;-58
2021/04/15 02:09:41;;;;;;;;;;;;;;;9.10;71.10;99827.38;1763442;80;21209;-59
2021/04/15 02:12:18;;;;;;;;;;;;;;;9.04;71.27;99825.59;1762884;80;20135;-59
2021/04/15 02:14:48;;;;;;;;;;;;;;;8.98;71.56;99821.64;1763872;80;20140;-59
2021/04/15 02:17:16;;;;;;;;;;;;;;;8.98;71.78;99826.48;1765083;80;20610;-58
2021/04/15 02:19:50;;;;;;;;;;;;;;;9.00;71.73;99823.59;1761480;80;20210;-59
2021/04/15 02:22:34;;;;;;;;;;;;;;;9.03;71.63;99823.95;1762086;80;21193;-58
2021/04/15 02:25:22;;;;;;;;;;;;;;;9.08;71.47;99825.96;1761233;80;20199;-59
2021/04/15 02:27:59;;;;;;;;;;;;;;;9.11;71.33;99826.35;1764009;80;20480;-58
2021/04/15 02:30:36;;;;;;;;;;;;;;;9.18;71.15;99823.59;1729013;80;21061;-58
2021/04/15 02:33:18;;;;;;;;;;;;;;;9.19;70.97;99823.90;1765130;80;20282;-58
2021/04/15 02:35:54;;;;;;;;;;;;;;;9.21;70.85;99817.80;1764755;80;21203;-58
2021/04/15 02:38:27;;;;;;;;;;;;;;;9.29;70.73;99818.05;1739799;80;20198;-60
2021/04/15 02:40:58;;;;;;;;;;;;;;;9.33;70.56;99822.41;1776011;80;20131;-60
2021/04/15 02:43:38;;;;;;;;;;;;;;;9.37;70.44;99826.28;1772383;80;20141;-58
2021/04/15 02:46:10;;;;;;;;;;;;;;;9.40;70.17;99825.30;1772989;80;20480;-59
2021/04/15 02:48:38;;;;;;;;;;;;;;;9.41;70.13;99823.47;1772541;80;21202;-58
2021/04/15 02:51:10;;;;;;;;;;;;;;;9.43;69.99;99819.50;1771754;80;20219;-60
2021/04/15 02:53:48;;;;;;;;;;;;;;;9.43;69.85;99814.69;1744617;80;20214;-61
2021/04/15 02:56:20;;;;;;;;;;;;;;;9.40;69.80;99817.81;1760970;80;20178;-59
2021/04/15 02:58:56;;;;;;;;;;;;;;;9.37;69.86;99811.04;1771973;80;20132;-60
2021/04/15 03:01:27;;;;;;;;;;;;;;;9.34;69.91;99812.83;1768917;80;21363;-60
2021/04/15 03:03:55;;;;;;;;;;;;;;;9.36;69.83;99807.25;1770781;80;20127;-59
2021/04/15 03:09:08;;;;;;;;;;;;;;;9.40;69.75;99801.23;1828247;77;20357;-61
2021/04/15 03:11:54;;;;;;;;;;;;;;;9.34;69.75;99808.81;1799721;79;20141;-62
2021/04/15 03:14:31;;;;;;;;;;;;;;;9.32;69.71;99808.23;1799264;79;21186;-60
2021/04/15 03:17:01;;;;;;;;;;;;;;;9.29;69.77;99809.48;1803178;79;20153;-61
2021/04/15 03:19:33;;;;;;;;;;;;;;;9.28;69.84;99809.72;1784403;79;20239;-60
2021/04/15 03:22:13;;;;;;;;;;;;;;;9.32;69.89;99812.75;1802190;79;20120;-59
2021/04/15 03:24:45;;;;;;;;;;;;;;;9.35;69.83;99812.30;1800553;79;20156;-60
2021/04/15 03:27:33;;;;;;;;;;;;;;;9.40;69.72;99807.91;1801458;79;21195;-58
2021/04/15 03:30:11;;;;;;;;;;;;;;;9.40;69.56;99808.45;1800817;79;20145;-60
2021/04/15 03:32:53;;;;;;;;;;;;;;;9.42;69.51;99808.52;1827529;77;20157;-61
2021/04/15 03:35:30;;;;;;;;;;;;;;;9.38;69.55;99810.51;1767634;79;20478;-60
2021/04/15 03:38:00;;;;;;;;;;;;;;;9.35;69.49;99805.11;1800518;79;21268;-59
2021/04/15 03:40:30;;;;;;;;;;;;;;;9.36;69.53;99808.06;1801596;79;20159;-60
2021/04/15 03:43:01;;;;;;;;;;;;;;;9.39;69.59;99812.16;1768269;79;20190;-59
2021/04/15 03:45:41;;;;;;;;;;;;;;;9.35;69.57;99805.61;1800964;79;20151;-59
2021/04/15 03:48:12;;;;;;;;;;;;;;;9.29;69.68;99801.47;1801712;79;20172;-59
2021/04/15 03:51:02;;;;;;;;;;;;;;;9.22;69.82;99810.08;1801640;79;21206;-59
2021/04/15 03:53:36;;;;;;;;;;;;;;;9.18;69.97;99813.42;1796946;79;20180;-60
2021/04/15 03:56:06;;;;;;;;;;;;;;;9.16;70.11;99816.82;1801623;79;20155;-59
2021/04/15 03:58:43;;;;;;;;;;;;;;;9.17;70.25;99825.16;1801626;79;20159;-60
2021/04/15 04:01:16;;;;;;;;;;;;;;;9.21;70.26;99821.00;1796254;79;20228;-58
2021/04/15 04:03:44;;;;;;;;;;;;;;;9.27;70.25;99832.14;1788770;79;22307;-58
2021/04/15 04:06:19;;;;;;;;;;;;;;;9.37;70.10;99834.31;1788556;79;20118;-58
2021/04/15 04:08:57;;;;;;;;;;;;;;;9.43;69.74;99836.89;1789203;79;20137;-60
2021/04/15 04:11:25;;;;;;;;;;;;;;;9.47;69.63;99836.75;1791215;79;20132;-59
2021/04/15 04:13:55;;;;;;;;;;;;;;;9.53;69.48;99839.05;1787563;79;20324;-59
2021/04/15 04:16:30;;;;;;;;;;;;;;;9.53;69.38;99836.91;1790051;79;21605;-58
2021/04/15 04:19:27;;;;;;;;;;;;;;;9.51;69.40;99833.63;1783931;79;20220;-59
2021/04/15 04:22:17;;;;;;;;;;;;;;;9.50;69.41;99836.02;1783980;79;20241;-61
2021/04/15 04:24:57;;;;;;;;;;;;;;;9.51;69.52;99834.46;1784909;79;20539;-61
2021/04/15 04:27:41;;;;;;;;;;;;;;;9.54;69.48;99832.67;1789415;79;20214;-60
2021/04/15 04:30:11;;;;;;;;;;;;;;;9.59;69.43;99829.32;1787543;79;21204;-61
2021/04/15 04:32:40;;;;;;;;;;;;;;;9.66;69.41;99831.39;1786312;79;20272;-58
2021/04/15 04:35:10;;;;;;;;;;;;;;;9.77;69.25;99836.50;1788748;79;20165;-59
2021/04/15 04:37:42;;;;;;;;;;;;;;;9.86;69.04;99831.66;1787251;79;20214;-58
2021/04/15 04:40:31;;;;;;;;;;;;;;;9.87;68.92;99828.75;1785728;79;20183;-58
2021/04/15 04:43:02;;;;;;;;;;;;;;;9.89;68.91;99829.33;1779705;79;21462;-58
2021/04/15 04:45:32;;;;;;;;;;;;;;;9.94;69.00;99830.02;1784334;79;20141;-59
2021/04/15 04:48:26;;;;;;;;;;;;;;;9.92;69.03;99831.58;1785651;79;20236;-59
2021/04/15 04:51:08;;;;;;;;;;;;;;;9.83;69.21;99826.22;1782029;79;20218;-60
2021/04/15 04:53:43;;;;;;;;;;;;;;;9.77;69.44;99835.16;1782966;79;20259;-61
2021/04/15 04:56:35;;;;;;;;;;;;;;;9.72;69.59;99829.15;1783952;78;21187;-58
2021/04/15 04:59:06;;;;;;;;;;;;;;;9.71;69.74;99826.70;1785631;79;20204;-58
2021/04/15 05:01:33;;;;;;;;;;;;;;;9.62;69.87;99828.34;1786507;79;20522;-58
2021/04/15 05:04:01;;;;;;;;;;;;;;;9.61;70.14;99836.59;1774522;79;20247;-59
2021/04/15 05:06:31;;;;;;;;;;;;;;;9.60;70.24;99843.81;1785717;79;20315;-58
2021/04/15 05:09:13;;;;;;;;;;;;;;;9.56;70.16;99838.61;1783580;79;20215;-59
2021/04/15 05:11:43;;;;;;;;;;;;;;;9.51;70.31;99842.98;1704613;84;20312;-58
2021/04/15 05:14:11;;;;;;;;;;;;;;;9.43;70.54;99836.09;1707542;84;20525;-57
2021/04/15 05:16:42;;;;;;;;;;;;;;;9.34;71.06;99839.58;1707070;84;20283;-59
2021/04/15 05:19:18;;;;;;;;;;;;;;;9.38;71.41;99841.27;1828125;77;20264;-61
2021/04/15 05:21:48;;;;;;;;;;;;;;;9.37;71.34;99845.02;1818968;78;20173;-58
2021/04/15 05:24:19;;;;;;;;;;;;;;;9.41;71.08;99838.18;1819112;78;20507;-59
2021/04/15 05:26:48;;;;;;;;;;;;;;;9.47;70.70;99835.41;1815450;78;20585;-58
2021/04/15 05:29:25;;;;;;;;;;;;;;;9.56;70.38;99844.48;1818660;78;20227;-59
2021/04/15 05:31:56;;;;;;;;;;;;;;;9.62;69.71;99837.70;1818777;78;20180;-58
2021/04/15 05:34:30;;;;;;;;;;;;;;;9.61;69.44;99836.09;1786452;78;20121;-59
2021/04/15 05:37:11;;;;;;;;;;;;;;;9.62;69.27;99837.70;1814541;78;21203;-58
2021/04/15 05:39:39;;;;;;;;;;;;;;;9.62;69.27;99837.70;1811294;78;20208;-59
2021/04/15 05:42:13;;;;;;;;;;;;;;;9.71;68.96;99840.08;1818772;78;20141;-58
2021/04/15 05:44:46;;;;;;;;;;;;;;;9.73;68.80;99833.97;1814637;78;20180;-58
2021/04/15 05:47:22;;;;;;;;;;;;;;;9.75;68.70;99839.41;1818790;78;20366;-59
2021/04/15 05:49:58;;;;;;;;;;;;;;;9.72;68.63;99835.03;1818670;78;21233;-59
2021/04/15 05:52:36;;;;;;;;;;;;;;;9.69;68.74;99835.46;1786065;78;20227;-58
2021/04/15 05:55:11;;;;;;;;;;;;;;;9.63;68.91;99838.01;1818454;78;20254;-59
2021/04/15 05:57:41;;;;;;;;;;;;;;;9.65;69.13;99833.77;1818598;78;20314;-58
2021/04/15 06:00:18;;;;;;;;;;;;;;;9.71;69.21;99832.86;1817584;78;20240;-59
2021/04/15 06:02:50;;;;;;;;;;;;;;;9.72;69.11;99835.03;1810870;79;22033;-59
2021/04/15 06:05:37;;;;;;;;;;;;;;;9.65;69.31;99831.89;1810226;79;20295;-58
2021/04/15 06:08:07;;;;;;;;;;;;;;;9.63;69.50;99835.33;1812861;79;20176;-59
2021/04/15 06:10:36;;;;;;;;;;;;;;;9.63;69.57;99831.84;1813282;78;20515;-59
2021/04/15 06:13:08;;;;;;;;;;;;;;;9.64;69.73;99836.14;1763562;79;20573;-59
2021/04/15 06:15:46;;;;;;;;;;;;;;;9.65;69.82;99833.23;1805875;79;21291;-58
2021/04/15 06:18:26;;;;;;;;;;;;;;;9.75;69.86;99834.05;1801888;78;20125;-59
2021/04/15 06:21:03;;;;;;;;;;;;;;;9.85;69.75;99840.72;1794357;79;20129;-58
2021/04/15 06:23:35;;;;;;;;;;;;;;;9.92;69.65;99840.95;1799876;79;20290;-59
2021/04/15 06:26:03;;;;;;;;;;;;;;;9.92;69.30;99830.74;1805011;79;20237;-59
2021/04/15 06:28:34;;;;;;;;;;;;;;;9.86;69.41;99828.45;1804790;79;22071;-59
2021/04/15 06:31:23;;;;;;;;;;;;;;;9.90;69.37;99830.97;1803950;79;20219;-61
2021/04/15 06:33:53;;;;;;;;;;;;;;;9.99;69.21;99828.80;1793458;79;20530;-59
2021/04/15 06:36:41;;;;;;;;;;;;;;;10.06;68.81;99832.73;1804280;79;20204;-60
2021/04/15 06:39:12;;;;;;;;;;;;;;;10.08;68.77;99838.13;1797859;79;20145;-59
2021/04/15 06:42:03;;;;;;;;;;;;;;;10.16;68.72;99842.38;1794847;79;21194;-59
2021/04/15 06:44:38;;;;;;;;;;;;;;;10.31;68.28;99843.29;1801332;79;20283;-60
2021/04/15 06:47:12;;;;;;;;;;;;;;;10.46;67.85;99844.22;1804279;79;20157;-59
2021/04/15 06:50:01;;;;;;;;;;;;;;;10.58;67.36;99842.38;1796961;79;20173;-59
2021/04/15 06:53:01;;;;;;;;;;;;;;;10.69;67.05;99843.45;1799804;79;20262;-58
2021/04/15 06:56:02;;;;;;;;;;;;;;;10.81;66.38;99838.91;1798679;79;21349;-59
2021/04/15 06:58:51;;;;;;;;;;;;;;;10.86;66.08;99841.72;1800113;79;20205;-61
2021/04/15 07:01:37;;;;;;;;;;;;;;;10.95;65.83;99841.35;1804518;79;20486;-58
2021/04/15 07:04:12;;;;;;;;;;;;;;;11.07;65.26;99831.97;1792968;79;20216;-60
2021/04/15 07:06:49;;;;;;;;;;;;;;;11.15;65.00;99836.98;1803896;79;20228;-59
2021/04/15 07:09:54;;;;;;;;;;;;;;;11.21;64.95;99836.84;1800352;79;21247;-60
2021/04/15 07:12:50;;;;;;;;;;;;;;;11.34;64.66;99832.30;1797737;79;20129;-60
2021/04/15 07:15:46;;;;;;;;;;;;;;;11.45;64.17;99833.31;1803202;79;20189;-61
2021/04/15 07:18:32;;;;;;;;;;;;;;;11.52;63.56;99837.49;1799388;79;20232;-59
2021/04/15 07:21:29;;;;;;;;;;;;;;;11.52;63.36;99829.98;1801561;79;20280;-60
2021/04/15 07:24:21;;;;;;;;;;;;;;;11.55;63.49;99826.81;1798191;79;20176;-61
2021/04/15 07:27:20;;;;;;;;;;;;;;;11.61;62.84;99815.66;1798535;79;20225;-61
2021/04/15 07:30:10;;;;;;;;;;;;;;;11.58;62.47;99819.09;1798848;79;20161;-59
2021/04/15 07:32:58;;;;;;;;;;;;;;;11.54;62.60;99821.98;1784195;79;20242;-60
2021/04/15 07:35:30;;;;;;;;;;;;;;;11.57;62.33;99815.30;1804432;79;20149;-61
2021/04/15 07:38:36;;;;;;;;;;;;;;;11.51;62.54;99813.57;1795925;79;20248;-61
2021/04/15 07:41:16;;;;;;;;;;;;;;;11.53;62.25;99810.14;1804363;79;20134;-61
2021/04/15 07:44:09;;;;;;;;;;;;;;;11.65;61.85;99810.11;1802125;79;20122;-60
2021/04/15 07:46:52;;;;;;;;;;;;;;;11.74;60.62;99809.47;1801139;79;20149;-61
2021/04/15 07:49:57;;;;;;;;;;;;;;;11.74;59.50;99812.16;1803380;79;20237;-60
2021/04/15 07:52:48;;;;;;;;;;;;;;;11.74;60.00;99810.81;1796945;79;21163;-61
2021/04/15 07:55:38;;;;;;;;;;;;;;;11.90;59.88;99805.74;1804173;79;20113;-60
2021/04/15 07:58:42;;;;;;;;;;;;;;;12.12;59.19;99803.22;1829104;77;20205;-62
2021/04/15 08:01:25;;;;;;;;;;;;;;;12.19;59.16;99807.08;1796007;79;20248;-60
2021/04/15 08:04:14;;;;;;;;;;;;;;;12.23;58.11;99802.34;1801351;79;21211;-61
2021/04/15 08:07:06;;;;;;;;;;;;;;;12.28;57.95;99812.36;1801492;79;20500;-60
2021/04/15 08:10:10;;;;;;;;;;;;;;;12.43;57.92;99794.33;1793377;79;20212;-61
2021/04/15 08:13:10;;;;;;;;;;;;;;;12.56;56.75;99794.00;1711446;83;20211;-59
2021/04/15 08:16:02;;;;;;;;;;;;;;;12.56;56.68;99798.03;1712134;83;20211;-60
2021/04/15 08:18:44;;;;;;;;;;;;;;;12.52;56.84;99794.19;1781715;79;20161;-60
2021/04/15 08:21:35;;;;;;;;;;;;;;;12.49;57.40;99797.38;1804697;79;20112;-63
2021/04/15 08:24:14;;;;;;;;;;;;;;;12.46;57.04;99788.45;1799126;79;20159;-62
2021/04/15 08:27:21;;;;;;;;;;;;;;;12.34;55.29;99787.73;1800515;79;20139;-61
2021/04/15 08:30:12;;;;;;;;;;;;;;;12.22;54.57;99790.47;1798140;79;20132;-62
2021/04/15 08:33:02;;;;;;;;;;;;;;;12.24;55.51;99796.43;1798608;79;22124;-63
2021/04/15 08:35:36;;;;;;;;;;;;;;;12.30;54.49;99794.11;1800577;79;20125;-63
2021/04/15 08:38:10;;;;;;;;;;;;;;;12.23;55.37;99797.48;1800918;79;20496;-63
2021/04/15 08:41:02;;;;;;;;;;;;;;;12.25;55.66;99790.81;1801467;79;20219;-63
2021/04/15 08:43:37;;;;;;;;;;;;;;;12.44;54.83;99794.63;1798960;79;20226;-61
2021/04/15 08:46:36;;;;;;;;;;;;;;;12.61;54.08;99827.67;1709372;83;20193;-59
2021/04/15 08:49:10;;;;;;;;;;;;;;;12.67;54.69;99807.06;1708743;83;20165;-59
2021/04/15 08:51:43;;;;;;;;;;;;;;;12.59;54.80;99815.55;1697145;83;20261;-60
2021/04/15 08:54:39;;;;;;;;;;;;;;;12.46;56.44;99805.93;1710080;83;20302;-60
2021/04/15 08:57:29;;;;;;;;;;;;;;;12.36;57.45;99805.77;1701074;83;20584;-60
2021/04/15 09:00:23;;;;;;;;;;;;;;;12.40;57.91;99791.59;1696462;83;21209;-60
2021/04/15 09:03:00;;;;;;;;;;;;;;;12.46;58.06;99784.97;1702107;83;20255;-60
2021/04/15 09:05:35;;;;;;;;;;;;;;;12.44;57.42;99798.66;1792915;79;20139;-59
2021/04/15 09:08:19;;;;;;;;;;;;;;;12.40;56.58;99804.22;1782819;79;20304;-60
2021/04/15 09:11:07;;;;;;;;;;;;;;;12.40;56.95;99788.09;1788362;79;20120;-60
2021/04/15 09:13:49;;;;;;;;;;;;;;;12.52;56.42;99779.95;1789103;79;20195;-62
2021/04/15 09:16:42;;;;;;;;;;;;;;;12.60;56.26;99800.52;1793273;79;20296;-60
2021/04/15 09:19:45;;;;;;;;;;;;;;;12.53;56.81;99790.45;1783222;79;20167;-58
2021/04/15 09:22:40;;;;;;;;;;;;;;;12.46;57.34;99789.00;1784755;79;20136;-60
2021/04/15 09:25:11;;;;;;;;;;;;;;;12.44;57.48;99791.39;1651225;87;20244;-62
2021/04/15 09:28:10;;;;;;;;;;;;;;;12.52;57.02;99802.80;1818573;76;20268;-60
2021/04/15 09:31:19;;;;;;;;;;;;;;;12.42;56.50;99798.06;1818101;77;20137;-58
2021/04/15 09:34:10;;;;;;;;;;;;;;;12.29;56.61;99786.29;1812971;77;22136;-62
2021/04/15 09:36:50;;;;;;;;;;;;;;;12.29;55.87;99783.60;1823946;77;20494;-61
2021/04/15 09:39:57;;;;;;;;;;;;;;;12.22;55.86;99769.80;1820237;77;20184;-61
2021/04/15 09:42:47;;;;;;;;;;;;;;;12.20;56.33;99779.96;1830364;77;20131;-61
2021/04/15 09:45:39;;;;;;;;;;;;;;;12.29;56.17;99775.00;1827280;77;20211;-60
2021/04/15 09:48:15;;;;;;;;;;;;;;;12.40;56.10;99775.46;1828457;77;20684;-60
2021/04/15 09:50:54;;;;;;;;;;;;;;;12.56;55.39;99795.34;1815094;77;20906;-59
2021/04/15 09:53:35;;;;;;;;;;;;;;;12.58;55.28;99781.65;1818452;77;20144;-60
2021/04/15 09:56:16;;;;;;;;;;;;;;;12.53;55.45;99778.36;1819866;77;20224;-62
2021/04/15 09:59:12;;;;;;;;;;;;;;;12.53;55.69;99775.67;1806158;78;20135;-61
2021/04/15 10:01:43;;;;;;;;;;;;;;;12.38;56.43;99777.59;1806310;77;21622;-59
2021/04/15 10:04:36;;;;;;;;;;;;;;;12.11;57.30;99780.63;1803066;77;20130;-59
2021/04/15 10:07:09;;;;;;;;;;;;;;;12.00;58.32;99768.36;1796724;77;20123;-59
2021/04/15 10:10:00;;;;;;;;;;;;;;;11.95;59.15;99787.05;1806220;77;20146;-58
2021/04/15 10:12:44;;;;;;;;;;;;;;;12.01;59.37;99793.33;1806272;77;20244;-60
2021/04/15 10:15:28;;;;;;;;;;;;;;;12.02;59.62;99797.66;1827923;77;21196;-60
2021/04/15 10:18:35;;;;;;;;;;;;;;;12.07;59.84;99785.64;1815447;77;20225;-59
2021/04/15 10:21:35;;;;;;;;;;;;;;;12.01;60.05;99789.30;1834399;77;20182;-59
2021/04/15 10:24:16;;;;;;;;;;;;;;;11.95;60.05;99774.97;1694844;84;21215;-60
2021/04/15 10:27:19;;;;;;;;;;;;;;;11.96;59.89;99794.06;1695049;84;21228;-59
2021/04/15 10:30:00;;;;;;;;;;;;;;;12.03;58.72;99781.84;1698482;84;20148;-60
2021/04/15 10:32:49;;;;;;;;;;;;;;;12.07;59.20;99774.39;1699690;84;20168;-60
2021/04/15 10:35:35;;;;;;;;;;;;;;;12.12;59.03;99772.31;1695192;84;20592;-60
2021/04/15 10:38:10;;;;;;;;;;;;;;;12.10;58.74;99778.44;1698115;84;20164;-60
2021/04/15 10:41:10;;;;;;;;;;;;;;;12.15;57.82;99779.89;1825811;77;20259;-61
2021/04/15 10:43:59;;;;;;;;;;;;;;;12.09;56.48;99774.95;1828120;77;20174;-59
2021/04/15 10:46:31;;;;;;;;;;;;;;;12.06;56.88;99782.70;1835193;77;21382;-61
2021/04/15 10:49:29;;;;;;;;;;;;;;;12.07;57.49;99768.19;1835275;77;20519;-59
2021/04/15 10:52:03;;;;;;;;;;;;;;;12.14;57.44;99769.39;1831333;77;20197;-61
2021/04/15 10:54:37;;;;;;;;;;;;;;;12.26;57.35;99758.86;1834327;77;20230;-62
2021/04/15 10:57:18;;;;;;;;;;;;;;;12.35;57.04;99762.47;1834155;77;20154;-58
2021/04/15 10:59:47;;;;;;;;;;;;;;;12.37;56.77;99764.39;1832774;77;21196;-59
2021/04/15 11:02:28;;;;;;;;;;;;;;;12.33;56.42;99772.12;1804461;79;20160;-61
2021/04/15 11:05:18;;;;;;;;;;;;;;;12.28;56.60;99762.64;1799271;79;20135;-61
2021/04/15 11:07:46;;;;;;;;;;;;;;;12.20;56.66;99766.52;1803080;79;20216;-59
2021/04/15 11:10:31;;;;;;;;;;;;;;;12.14;56.87;99764.81;1802984;79;20303;-60
2021/04/15 11:13:19;;;;;;;;;;;;;;;12.13;57.01;99770.44;1766642;79;21109;-61
2021/04/15 11:15:56;;;;;;;;;;;;;;;12.16;57.41;99747.94;1804522;79;20210;-58
2021/04/15 11:18:27;;;;;;;;;;;;;;;12.20;57.39;99756.31;1801105;79;20143;-59
2021/04/15 11:21:12;;;;;;;;;;;;;;;12.17;57.57;99752.23;1798985;79;20144;-60
2021/04/15 11:23:39;;;;;;;;;;;;;;;12.08;58.37;99758.53;1784822;79;20421;-59
2021/04/15 11:26:12;;;;;;;;;;;;;;;12.07;58.95;99761.47;1763614;79;20141;-60
2021/04/15 11:28:41;;;;;;;;;;;;;;;12.09;58.91;99745.40;1766687;79;20594;-59
2021/04/15 11:31:15;;;;;;;;;;;;;;;12.15;59.23;99746.30;1802282;79;20306;-60
2021/04/15 11:33:45;;;;;;;;;;;;;;;12.17;59.62;99748.20;1798787;79;20161;-58
2021/04/15 11:36:25;;;;;;;;;;;;;;;12.16;59.65;99757.34;1799376;79;20209;-59
2021/04/15 11:39:12;;;;;;;;;;;;;;;12.20;59.72;99745.03;1806056;79;21133;-58
2021/04/15 11:41:56;;;;;;;;;;;;;;;12.22;59.83;99742.93;1791542;79;20214;-60
2021/04/15 11:44:39;;;;;;;;;;;;;;;12.20;60.23;99743.69;1789790;79;20316;-60
2021/04/15 11:47:17;;;;;;;;;;;;;;;12.14;60.44;99742.52;1787461;79;20216;-59
2021/04/15 11:49:46;;;;;;;;;;;;;;;12.15;60.42;99749.53;1792985;79;20232;-61
2021/04/15 11:52:30;;;;;;;;;;;;;;;12.14;60.46;99738.48;1790645;79;21212;-60
2021/04/15 11:55:01;;;;;;;;;;;;;;;12.19;60.53;99739.90;1790460;79;20278;-59
2021/04/15 11:57:38;;;;;;;;;;;;;;;12.26;60.45;99738.70;1828682;77;20213;-62
2021/04/15 12:00:14;;;;;;;;;;;;;;;12.18;60.52;99736.41;1803002;79;20113;-59
2021/04/15 12:02:59;;;;;;;;;;;;;;;12.21;60.46;99737.27;1783194;79;21189;-59
2021/04/15 12:05:32;;;;;;;;;;;;;;;12.29;60.36;99732.00;1787300;79;20167;-61
2021/04/15 12:08:05;;;;;;;;;;;;;;;12.32;60.18;99730.70;1788407;79;20168;-61
2021/04/15 12:10:34;;;;;;;;;;;;;;;12.32;60.02;99728.82;1788371;79;20199;-59
2021/04/15 12:13:10;;;;;;;;;;;;;;;12.27;60.08;99728.22;1784159;79;20485;-62
2021/04/15 12:15:55;;;;;;;;;;;;;;;12.23;60.39;99720.89;1831054;77;20182;-59
2021/04/15 12:18:38;;;;;;;;;;;;;;;12.20;60.60;99722.73;1800561;79;20550;-60
2021/04/15 12:21:13;;;;;;;;;;;;;;;12.26;60.49;99715.86;1801264;79;21208;-59
2021/04/15 12:23:51;;;;;;;;;;;;;;;12.26;60.48;99714.52;1793072;79;20202;-61
2021/04/15 12:26:25;;;;;;;;;;;;;;;12.20;60.87;99719.50;1796814;79;20111;-60
2021/04/15 12:29:15;;;;;;;;;;;;;;;12.24;60.84;99721.19;1803095;79;20140;-61
2021/04/15 12:32:01;;;;;;;;;;;;;;;12.29;60.91;99720.45;1801927;79;20109;-60
2021/04/15 12:34:43;;;;;;;;;;;;;;;12.23;60.91;99711.48;1800779;79;21142;-58
2021/04/15 12:37:22;;;;;;;;;;;;;;;12.20;60.94;99713.33;1797097;79;20186;-59
2021/04/15 12:40:06;;;;;;;;;;;;;;;12.23;61.12;99719.04;1803995;79;20129;-61
2021/04/15 12:42:37;;;;;;;;;;;;;;;12.28;60.81;99710.23;1801694;79;20246;-60
2021/04/15 12:45:08;;;;;;;;;;;;;;;12.30;60.76;99701.93;1801609;79;20248;-60
2021/04/15 12:47:38;;;;;;;;;;;;;;;12.31;60.58;99703.03;1800410;79;21154;-59
2021/04/15 12:50:07;;;;;;;;;;;;;;;12.33;60.55;99708.16;1801711;78;20198;-60
2021/04/15 12:52:36;;;;;;;;;;;;;;;12.29;60.45;99695.72;1800909;79;20295;-60
2021/04/15 12:55:09;;;;;;;;;;;;;;;12.20;60.68;99694.52;1793582;79;20694;-62
2021/04/15 12:57:37;;;;;;;;;;;;;;;12.17;60.74;99703.87;1802608;79;20305;-62
2021/04/15 13:00:10;;;;;;;;;;;;;;;12.18;60.63;99701.48;1796356;79;21199;-60
2021/04/15 13:02:38;;;;;;;;;;;;;;;12.17;60.24;99690.98;1766174;80;20193;-60
2021/04/15 13:05:10;;;;;;;;;;;;;;;12.06;60.66;99695.38;1766342;80;20157;-59
2021/04/15 13:07:44;;;;;;;;;;;;;;;11.94;61.24;99700.83;1761759;80;20506;-59
2021/04/15 13:10:19;;;;;;;;;;;;;;;11.83;61.61;99698.99;1768913;80;20500;-60
2021/04/15 13:12:51;;;;;;;;;;;;;;;11.79;61.86;99705.36;1771520;79;20185;-59
2021/04/15 13:15:28;;;;;;;;;;;;;;;11.85;62.07;99698.20;1759019;80;20237;-60
2021/04/15 13:17:57;;;;;;;;;;;;;;;11.95;62.07;99701.09;1759873;80;20241;-59
2021/04/15 13:20:30;;;;;;;;;;;;;;;12.03;61.96;99693.99;1759324;80;20249;-61
2021/04/15 13:23:11;;;;;;;;;;;;;;;12.08;61.92;99698.09;1758499;80;20518;-60
2021/04/15 13:25:56;;;;;;;;;;;;;;;12.00;62.11;99698.52;1759071;80;20158;-60
2021/04/15 13:28:38;;;;;;;;;;;;;;;11.96;62.27;99701.94;1644898;86;20270;-60
2021/04/15 13:31:43;;;;;;;;;;;;;;;12.00;62.44;99697.67;1826640;77;20207;-61
2021/04/15 13:34:17;;;;;;;;;;;;;;;11.91;62.48;99695.89;1802726;79;20190;-58
2021/04/15 13:36:45;;;;;;;;;;;;;;;11.78;63.15;99688.15;1806132;79;21258;-62
2021/04/15 13:39:36;;;;;;;;;;;;;;;11.75;63.43;99694.84;1803528;79;20161;-59
2021/04/15 13:42:30;;;;;;;;;;;;;;;11.81;63.50;99698.44;1801846;78;20149;-59
2021/04/15 13:45:00;;;;;;;;;;;;;;;11.92;63.47;99697.02;1803897;78;20178;-59
2021/04/15 13:47:47;;;;;;;;;;;;;;;12.05;63.37;99694.55;1799788;78;20131;-60
2021/04/15 13:50:15;;;;;;;;;;;;;;;12.15;63.14;99695.80;1801120;79;21201;-59
2021/04/15 13:52:43;;;;;;;;;;;;;;;12.17;63.14;99697.16;1799003;79;20334;-60
2021/04/15 13:55:30;;;;;;;;;;;;;;;12.13;63.29;99693.86;1800071;78;20131;-60